• Join FlightAware (Why Join?)
  • Login
  • US Flag 
06:23AM EDT


 

Airport Tracker/Info


-or-


 

Live Flight TrackerFlight Track Log ✈ SKW5476 ✈ 2013年 04月 29日 ✈ KSFO - KRDM

Flight Track Log - Related Links

Times and Time Zones

All times are in EDT time to prevent confusion due to time zone crossing. See the SKW5476 flight status page for this flight to view local times or setup timezone preferences in your user account.

Time Position Orientation Groundspeed Altitude Reporting Facility
EDT Latitude Longitude Course Direction KTS MPH feet Rate Location/Type
02:58PM 37.6333 -122.3667 360° North 135 155 800  Level Northern Cal TRACON
02:59PM 37.6678 -122.3669 360° North 159 183 2,300 1,500 Climbing Oakland Center
03:00PM 37.7147 -122.3606 North 165 190 3,900 1,500 Climbing Oakland Center
03:01PM 37.7639 -122.3694 352° North 178 205 5,400 1,020 Climbing Oakland Center
03:02PM 37.8292 -122.3817 352° North 196 226 6,000 900 Climbing Oakland Center
03:03PM 37.8875 -122.3811 360° North 209 241 7,300 1,380 Climbing Oakland Center
03:04PM 37.9422 -122.3786 North 201 231 8,900 1,440 Climbing Oakland Center
03:05PM 37.9942 -122.3819 357° North 191 220 10,300 1,260 Climbing Oakland Center
03:07PM 38.0461 -122.3794 North 187 215 11,600 1,080 Climbing Oakland Center
03:08PM 38.1178 -122.3603 North  Level FlightAware Approximate
03:09PM 38.1689 -122.3664 North 205 236 13,800  Level Oakland Center
03:10PM 38.2244 -122.3550 North 205 236 14,700 900 Climbing Oakland Center
03:11PM 38.2822 -122.3447 North 212 244 15,700 960 Climbing Oakland Center
03:12PM 38.3411 -122.3342 North 213 245 16,700 900 Climbing Oakland Center
03:13PM 38.4006 -122.3231 North 216 249 17,600 840 Climbing Oakland Center
03:14PM 38.4606 -122.3122 North 219 252 18,500 780 Climbing Oakland Center
03:15PM 38.5219 -122.3003 North 223 257 19,200 780 Climbing Oakland Center
03:16PM 38.5967 -122.2869 North 228 262 20,200 720 Climbing Oakland Center
03:17PM 38.6597 -122.2747 North 229 264 20,800 600 Climbing Oakland Center
03:18PM 38.7219 -122.2642 North 230 265 21,500 660 Climbing Oakland Center
03:19PM 38.7864 -122.2514 North 232 267 22,200 540 Climbing Oakland Center
03:20PM 38.8481 -122.2419 North 224 258 22,700 480 Climbing Oakland Center
03:21PM 38.9139 -122.2289 North 232 267 23,300 540 Climbing Oakland Center
03:22PM 38.9822 -122.2172 North 242 278 23,900 300 Climbing Oakland Center
03:23PM 39.0667 -122.2017 North 251 289 24,000  Climbing Oakland Center
03:24PM 39.1436 -122.1839 10° North 275 316 24,000  Level Oakland Center
03:25PM 39.2158 -122.1706 North 265 305 24,000  Level Oakland Center
03:26PM 39.2861 -122.1575 North 258 297 24,000  Level Oakland Center
03:27PM 39.3561 -122.1453 North 256 295 24,000  Level Oakland Center
03:28PM 39.4247 -122.1319 North 251 289 24,000  Level Oakland Center
03:29PM 39.4975 -122.1181 North 253 291 24,000  Level Oakland Center
03:30PM 39.5667 -122.1058 North 251 289 24,000  Level Oakland Center
03:31PM 39.6339 -122.0922 North 248 285 24,000  Level Oakland Center
03:32PM 39.7008 -122.0794 North 245 282 24,000  Level Oakland Center
03:33PM 39.7811 -122.0647 North 244 281 24,000  Level Oakland Center
03:34PM 39.8475 -122.0519 North 243 280 24,000  Level Oakland Center
03:35PM 39.9136 -122.0394 North 241 277 24,000  Level Oakland Center
03:36PM 39.9794 -122.0264 North 242 278 24,000  Level Oakland Center
03:37PM 40.0456 -122.0128 North 243 280 24,000  Level Oakland Center
03:38PM 40.1128 -121.9994 North 245 282 24,000  Level Oakland Center
03:39PM 40.1808 -121.9872 North 249 287 24,000  Level Oakland Center
03:40PM 40.2611 -121.9711 North 247 284 24,000  Level Oakland Center
03:41PM 40.3278 -121.9592 North 245 282 24,000  Level Oakland Center
03:42PM 40.3947 -121.9450 North 245 282 24,000  Level Oakland Center
03:43PM 40.4625 -121.9322 North 247 284 24,000  Level Oakland Center
03:44PM 40.5300 -121.9203 North 246 283 24,000  Level Oakland Center
03:46PM 40.5978 -121.9072 North 247 284 24,000  Level Oakland Center
03:47PM 40.6794 -121.8911 North 247 284 24,000  Level Oakland Center
03:48PM 40.7458 -121.8781 North 244 281 24,000  Level Oakland Center
03:49PM 40.8117 -121.8653 North 241 277 24,000  Level Oakland Center
03:50PM 40.8769 -121.8536 North 239 275 24,000  Level Oakland Center
03:51PM 40.9433 -121.8397 North 243 280 24,000  Level Oakland Center
03:52PM 41.0103 -121.8264 North 243 280 24,000  Level Oakland Center
03:53PM 41.0783 -121.8136 North 248 285 24,000  Level Oakland Center
03:54PM 41.1453 -121.8031 North 249 287 24,000  Level Oakland Center
03:54PM 41.1844 -121.7942 10° North 244 281 24,000  Level Seattle Center
03:55PM 41.2533 -121.7814 North 247 284 24,000  Level Seattle Center
03:56PM 41.3228 -121.7672 North 250 288 24,000  Level Seattle Center
03:57PM 41.3917 -121.7539 North 251 289 24,000  Level Seattle Center
03:58PM 41.4617 -121.7403 North 253 291 24,000  Level Seattle Center
03:59PM 41.5447 -121.7222 North 252 290 24,000  Level Seattle Center
04:00PM 41.6133 -121.7089 North 250 288 24,000  Level Seattle Center
04:01PM 41.6836 -121.6944 North 250 288 24,000  Level Seattle Center
04:02PM 41.7489 -121.6806 North 246 283 24,000  Level Seattle Center
04:03PM 41.8161 -121.6672 North 245 282 24,000  Level Seattle Center
04:04PM 41.8828 -121.6531 North 244 281 24,000  Level Seattle Center
04:05PM 41.9511 -121.6397 North 248 285 24,000  Level Seattle Center
04:06PM 42.0181 -121.6233 10° North 249 287 24,000  Level Seattle Center
04:07PM 42.0858 -121.6114 North 249 287 24,000  Level Seattle Center
04:08PM 42.1542 -121.5972 North 251 289 24,000  Level Seattle Center
04:10PM 42.2358 -121.5803 North 249 287 24,000  Level Seattle Center
04:11PM 42.3036 -121.5656 North 249 287 24,000  Level Seattle Center
04:12PM 42.3708 -121.5511 North 246 283 24,000  Level Seattle Center
04:13PM 42.4372 -121.5381 North 244 281 24,000  Level Seattle Center
04:14PM 42.5031 -121.5236 North 240 276 24,000  Level Seattle Center
04:15PM 42.5694 -121.5106 North 241 277 24,000  Level Seattle Center
04:16PM 42.6367 -121.4961 North 243 280 24,000  Level Seattle Center
04:17PM 42.7033 -121.4817 North 244 281 24,000  Level Seattle Center
04:18PM 42.7694 -121.4686 North 240 276 24,000  Level Seattle Center
04:19PM 42.8356 -121.4567 North 239 275 24,000 -60 Level Seattle Center
04:20PM 42.9000 -121.4422 North 237 273 23,900 -540 Descending Seattle Center
04:21PM 42.9672 -121.4111 19° North 250 288 23,000 -1,140 Descending Seattle Center
04:22PM 43.0472 -121.3728 19° North 254 292 21,600 -1,200 Descending Seattle Center
04:23PM 43.1136 -121.3536 12° North 246 283 20,600 -1,020 Descending Seattle Center
04:24PM 43.1778 -121.3478 North 233 268 19,600 -1,080 Descending Seattle Center
04:25PM 43.2400 -121.3372 North 226 260 18,500 -1,020 Descending Seattle Center
04:26PM 43.3000 -121.3253 North 219 252 17,600 -840 Descending Seattle Center
04:27PM 43.3589 -121.3142 North 214 246 16,800 -840 Descending Seattle Center
04:28PM 43.4167 -121.3031 North 212 244 16,000 -840 Descending Seattle Center
04:29PM 43.4756 -121.2947 North 211 243 15,200 -840 Descending Seattle Center
04:30PM 43.5333 -121.2819 North 211 243 14,400 -840 Descending Seattle Center
04:31PM 43.5978 -121.2739 North 212 244 13,500 -900 Descending Seattle Center
04:32PM 43.6550 -121.2625 North 207 238 12,600 -960 Descending Seattle Center
04:33PM 43.7092 -121.2522 North 197 227 11,600 -900 Descending Seattle Center
04:34PM 43.7631 -121.2425 North 196 226 10,800 -840 Descending Seattle Center
04:35PM 43.8197 -121.2319 North 202 232 10,000 -660 Descending Seattle Center
04:36PM 43.8783 -121.2194 North 210 242 9,500 -720 Descending Seattle Center
04:37PM 43.9392 -121.2069 North 217 250 8,600 -720 Descending Seattle Center
04:38PM 44.0017 -121.1972 North 223 257 8,100 -480 Descending Seattle Center
04:39PM 44.0600 -121.1722 17° North 226 260 7,700 -600 Descending Seattle Center
04:40PM 44.1172 -121.1397 22° Northeast 226 260 7,000 -900 Descending Seattle Center
04:41PM 44.1725 -121.1061 24° Northeast 222 255 5,900 -1,320 Descending Seattle Center
04:42PM 44.2208 -121.0783 22° Northeast 186 214 4,400 -1,140 Descending Seattle Center
04:43PM 44.2378 -121.1153 303° West 136 157 3,600 -840 Descending Seattle Center